sensor_id;sensor_type;location;lat;lon;timestamp;P1;durP1;ratioP1;P2;durP2;ratioP2
19004;SDS011;9635;52.078;8.648;2022-09-20T00:05:23;11.55;;;2.05;;
19004;SDS011;9635;52.078;8.648;2022-09-20T00:10:26;11.05;;;2.13;;
19004;SDS011;9635;52.078;8.648;2022-09-20T00:15:29;15.38;;;2.50;;
19004;SDS011;9635;52.078;8.648;2022-09-20T00:25:36;11.52;;;2.42;;
19004;SDS011;9635;52.078;8.648;2022-09-20T00:35:43;11.23;;;1.88;;
19004;SDS011;9635;52.078;8.648;2022-09-20T00:40:46;13.70;;;2.25;;
19004;SDS011;9635;52.078;8.648;2022-09-20T00:45:49;8.10;;;1.90;;
19004;SDS011;9635;52.078;8.648;2022-09-20T00:50:53;15.90;;;1.52;;
19004;SDS011;9635;52.078;8.648;2022-09-20T00:56:01;12.55;;;2.28;;
19004;SDS011;9635;52.078;8.648;2022-09-20T01:01:08;10.77;;;2.03;;
19004;SDS011;9635;52.078;8.648;2022-09-20T01:06:13;17.83;;;2.08;;
19004;SDS011;9635;52.078;8.648;2022-09-20T01:11:18;11.38;;;3.63;;
19004;SDS011;9635;52.078;8.648;2022-09-20T01:16:21;7.50;;;1.60;;
19004;SDS011;9635;52.078;8.648;2022-09-20T01:21:26;11.23;;;2.45;;
19004;SDS011;9635;52.078;8.648;2022-09-20T01:26:36;12.20;;;1.77;;
19004;SDS011;9635;52.078;8.648;2022-09-20T01:31:55;14.00;;;1.60;;
19004;SDS011;9635;52.078;8.648;2022-09-20T01:37:04;9.45;;;1.40;;
19004;SDS011;9635;52.078;8.648;2022-09-20T01:42:12;9.60;;;1.58;;
19004;SDS011;9635;52.078;8.648;2022-09-20T01:47:19;12.43;;;1.40;;
19004;SDS011;9635;52.078;8.648;2022-09-20T01:52:36;7.30;;;1.85;;
19004;SDS011;9635;52.078;8.648;2022-09-20T01:57:59;10.05;;;2.58;;
19004;SDS011;9635;52.078;8.648;2022-09-20T02:09:16;6.45;;;1.52;;
19004;SDS011;9635;52.078;8.648;2022-09-20T02:14:33;8.68;;;1.50;;
19004;SDS011;9635;52.078;8.648;2022-09-20T02:19:55;8.52;;;1.83;;
19004;SDS011;9635;52.078;8.648;2022-09-20T02:25:13;7.10;;;1.60;;
19004;SDS011;9635;52.078;8.648;2022-09-20T02:30:28;10.32;;;1.92;;
19004;SDS011;9635;52.078;8.648;2022-09-20T02:35:53;10.32;;;1.52;;
19004;SDS011;9635;52.078;8.648;2022-09-20T02:41:18;8.20;;;1.65;;
19004;SDS011;9635;52.078;8.648;2022-09-20T02:46:40;14.13;;;2.00;;
19004;SDS011;9635;52.078;8.648;2022-09-20T02:51:50;9.95;;;1.40;;
19004;SDS011;9635;52.078;8.648;2022-09-20T02:56:58;8.45;;;1.60;;
19004;SDS011;9635;52.078;8.648;2022-09-20T03:02:06;7.90;;;1.70;;
19004;SDS011;9635;52.078;8.648;2022-09-20T03:07:19;7.03;;;1.65;;
19004;SDS011;9635;52.078;8.648;2022-09-20T03:12:29;10.38;;;2.03;;
19004;SDS011;9635;52.078;8.648;2022-09-20T03:17:42;6.13;;;1.23;;
19004;SDS011;9635;52.078;8.648;2022-09-20T03:22:55;7.60;;;1.90;;
19004;SDS011;9635;52.078;8.648;2022-09-20T03:28:11;8.90;;;1.80;;
19004;SDS011;9635;52.078;8.648;2022-09-20T03:33:27;6.20;;;1.48;;
19004;SDS011;9635;52.078;8.648;2022-09-20T03:38:57;11.20;;;1.70;;
19004;SDS011;9635;52.078;8.648;2022-09-20T03:44:16;5.25;;;1.50;;
19004;SDS011;9635;52.078;8.648;2022-09-20T03:49:36;9.25;;;1.33;;
19004;SDS011;9635;52.078;8.648;2022-09-20T03:55:09;7.95;;;1.58;;
19004;SDS011;9635;52.078;8.648;2022-09-20T04:00:43;9.65;;;2.33;;
19004;SDS011;9635;52.078;8.648;2022-09-20T04:11:36;7.00;;;1.88;;
19004;SDS011;9635;52.078;8.648;2022-09-20T04:16:48;7.93;;;1.33;;
19004;SDS011;9635;52.078;8.648;2022-09-20T04:21:57;12.20;;;1.90;;
19004;SDS011;9635;52.078;8.648;2022-09-20T04:27:03;8.50;;;2.28;;
19004;SDS011;9635;52.078;8.648;2022-09-20T04:32:13;11.35;;;1.90;;
19004;SDS011;9635;52.078;8.648;2022-09-20T04:37:21;5.68;;;1.35;;
19004;SDS011;9635;52.078;8.648;2022-09-20T04:42:48;6.65;;;1.60;;
19004;SDS011;9635;52.078;8.648;2022-09-20T04:48:31;11.32;;;1.80;;
19004;SDS011;9635;52.078;8.648;2022-09-20T04:59:39;7.72;;;1.63;;
19004;SDS011;9635;52.078;8.648;2022-09-20T05:05:03;8.18;;;1.42;;
19004;SDS011;9635;52.078;8.648;2022-09-20T05:10:40;8.63;;;1.83;;
19004;SDS011;9635;52.078;8.648;2022-09-20T05:16:04;9.82;;;2.20;;
19004;SDS011;9635;52.078;8.648;2022-09-20T05:21:36;9.02;;;2.28;;
19004;SDS011;9635;52.078;8.648;2022-09-20T05:26:53;9.20;;;2.50;;
19004;SDS011;9635;52.078;8.648;2022-09-20T05:32:10;10.52;;;2.65;;
19004;SDS011;9635;52.078;8.648;2022-09-20T05:37:25;11.32;;;3.35;;
19004;SDS011;9635;52.078;8.648;2022-09-20T05:42:40;9.35;;;3.60;;
19004;SDS011;9635;52.078;8.648;2022-09-20T05:47:51;9.23;;;3.78;;
19004;SDS011;9635;52.078;8.648;2022-09-20T05:52:58;9.70;;;4.00;;
19004;SDS011;9635;52.078;8.648;2022-09-20T05:58:14;10.98;;;4.15;;
19004;SDS011;9635;52.078;8.648;2022-09-20T06:03:34;13.90;;;4.03;;
19004;SDS011;9635;52.078;8.648;2022-09-20T06:08:45;11.35;;;3.58;;
19004;SDS011;9635;52.078;8.648;2022-09-20T06:14:06;12.63;;;3.80;;
19004;SDS011;9635;52.078;8.648;2022-09-20T06:19:24;11.70;;;3.70;;
19004;SDS011;9635;52.078;8.648;2022-09-20T06:24:35;9.35;;;3.40;;
19004;SDS011;9635;52.078;8.648;2022-09-20T06:29:41;9.95;;;3.60;;
19004;SDS011;9635;52.078;8.648;2022-09-20T06:34:52;9.95;;;3.20;;
19004;SDS011;9635;52.078;8.648;2022-09-20T06:39:57;11.50;;;3.72;;
19004;SDS011;9635;52.078;8.648;2022-09-20T06:45:22;9.80;;;3.45;;
19004;SDS011;9635;52.078;8.648;2022-09-20T06:55:29;13.18;;;2.83;;
19004;SDS011;9635;52.078;8.648;2022-09-20T07:00:37;14.70;;;3.05;;
19004;SDS011;9635;52.078;8.648;2022-09-20T07:05:42;14.13;;;3.15;;
19004;SDS011;9635;52.078;8.648;2022-09-20T07:10:45;16.67;;;3.13;;
19004;SDS011;9635;52.078;8.648;2022-09-20T07:15:48;14.85;;;3.00;;
19004;SDS011;9635;52.078;8.648;2022-09-20T07:20:52;11.32;;;2.67;;
19004;SDS011;9635;52.078;8.648;2022-09-20T07:25:55;10.02;;;2.55;;
19004;SDS011;9635;52.078;8.648;2022-09-20T07:30:59;9.90;;;3.05;;
19004;SDS011;9635;52.078;8.648;2022-09-20T07:36:04;9.48;;;3.25;;
19004;SDS011;9635;52.078;8.648;2022-09-20T07:41:08;12.95;;;3.10;;
19004;SDS011;9635;52.078;8.648;2022-09-20T07:46:11;7.63;;;2.85;;
19004;SDS011;9635;52.078;8.648;2022-09-20T07:51:16;9.50;;;3.13;;
19004;SDS011;9635;52.078;8.648;2022-09-20T07:56:18;13.93;;;3.85;;
19004;SDS011;9635;52.078;8.648;2022-09-20T08:06:25;13.73;;;1.95;;
19004;SDS011;9635;52.078;8.648;2022-09-20T08:11:28;11.05;;;2.80;;
19004;SDS011;9635;52.078;8.648;2022-09-20T08:16:31;9.48;;;3.28;;
19004;SDS011;9635;52.078;8.648;2022-09-20T08:21:39;12.55;;;2.00;;
19004;SDS011;9635;52.078;8.648;2022-09-20T08:26:42;6.53;;;1.80;;
19004;SDS011;9635;52.078;8.648;2022-09-20T08:31:46;7.68;;;2.55;;
19004;SDS011;9635;52.078;8.648;2022-09-20T08:36:50;8.55;;;1.90;;
19004;SDS011;9635;52.078;8.648;2022-09-20T08:41:57;17.70;;;2.03;;
19004;SDS011;9635;52.078;8.648;2022-09-20T08:47:16;6.53;;;1.80;;
19004;SDS011;9635;52.078;8.648;2022-09-20T08:52:26;2.88;;;1.52;;
19004;SDS011;9635;52.078;8.648;2022-09-20T08:57:37;9.18;;;1.83;;
19004;SDS011;9635;52.078;8.648;2022-09-20T09:02:40;5.40;;;1.30;;
19004;SDS011;9635;52.078;8.648;2022-09-20T09:07:44;5.97;;;1.48;;
19004;SDS011;9635;52.078;8.648;2022-09-20T09:12:48;5.35;;;1.30;;
19004;SDS011;9635;52.078;8.648;2022-09-20T09:17:52;8.60;;;1.52;;
19004;SDS011;9635;52.078;8.648;2022-09-20T09:23:00;6.47;;;1.58;;
19004;SDS011;9635;52.078;8.648;2022-09-20T09:28:11;10.00;;;1.20;;
19004;SDS011;9635;52.078;8.648;2022-09-20T09:33:23;6.68;;;1.20;;
19004;SDS011;9635;52.078;8.648;2022-09-20T09:43:33;6.13;;;1.05;;
19004;SDS011;9635;52.078;8.648;2022-09-20T09:48:37;5.75;;;1.60;;
19004;SDS011;9635;52.078;8.648;2022-09-20T09:53:42;4.47;;;0.90;;
19004;SDS011;9635;52.078;8.648;2022-09-20T09:58:50;4.68;;;0.90;;
19004;SDS011;9635;52.078;8.648;2022-09-20T10:04:09;4.68;;;0.98;;
19004;SDS011;9635;52.078;8.648;2022-09-20T10:09:21;3.92;;;0.88;;
19004;SDS011;9635;52.078;8.648;2022-09-20T10:14:34;6.65;;;1.10;;
19004;SDS011;9635;52.078;8.648;2022-09-20T10:19:49;5.95;;;1.60;;
19004;SDS011;9635;52.078;8.648;2022-09-20T10:25:10;8.02;;;1.33;;
19004;SDS011;9635;52.078;8.648;2022-09-20T10:30:28;1.75;;;0.70;;
19004;SDS011;9635;52.078;8.648;2022-09-20T10:35:41;3.78;;;0.60;;
19004;SDS011;9635;52.078;8.648;2022-09-20T10:41:05;3.33;;;0.77;;
19004;SDS011;9635;52.078;8.648;2022-09-20T10:46:32;5.07;;;0.90;;
19004;SDS011;9635;52.078;8.648;2022-09-20T10:51:43;3.22;;;0.82;;
19004;SDS011;9635;52.078;8.648;2022-09-20T10:56:58;5.32;;;1.00;;
19004;SDS011;9635;52.078;8.648;2022-09-20T11:02:17;3.30;;;1.00;;
19004;SDS011;9635;52.078;8.648;2022-09-20T11:07:38;8.73;;;1.40;;
19004;SDS011;9635;52.078;8.648;2022-09-20T11:12:52;4.68;;;0.80;;
19004;SDS011;9635;52.078;8.648;2022-09-20T11:18:01;5.95;;;0.90;;
19004;SDS011;9635;52.078;8.648;2022-09-20T11:23:11;3.50;;;0.70;;
19004;SDS011;9635;52.078;8.648;2022-09-20T11:28:20;1.58;;;1.10;;
19004;SDS011;9635;52.078;8.648;2022-09-20T11:33:28;2.50;;;0.68;;
19004;SDS011;9635;52.078;8.648;2022-09-20T11:38:40;4.00;;;0.57;;
19004;SDS011;9635;52.078;8.648;2022-09-20T11:43:56;1.20;;;0.57;;
19004;SDS011;9635;52.078;8.648;2022-09-20T11:49:05;2.85;;;0.90;;
19004;SDS011;9635;52.078;8.648;2022-09-20T11:54:20;5.47;;;0.90;;
19004;SDS011;9635;52.078;8.648;2022-09-20T11:59:38;3.53;;;0.30;;
19004;SDS011;9635;52.078;8.648;2022-09-20T12:04:43;4.18;;;0.65;;
19004;SDS011;9635;52.078;8.648;2022-09-20T12:09:54;1.42;;;0.40;;
19004;SDS011;9635;52.078;8.648;2022-09-20T12:15:03;2.67;;;0.57;;
19004;SDS011;9635;52.078;8.648;2022-09-20T12:25:58;1.13;;;0.40;;
19004;SDS011;9635;52.078;8.648;2022-09-20T12:42:27;1.95;;;0.60;;
19004;SDS011;9635;52.078;8.648;2022-09-20T12:47:33;1.90;;;0.52;;
19004;SDS011;9635;52.078;8.648;2022-09-20T12:52:46;2.60;;;0.30;;
19004;SDS011;9635;52.078;8.648;2022-09-20T12:57:54;4.72;;;0.55;;
19004;SDS011;9635;52.078;8.648;2022-09-20T13:03:10;2.22;;;0.35;;
19004;SDS011;9635;52.078;8.648;2022-09-20T13:08:24;3.15;;;0.60;;
19004;SDS011;9635;52.078;8.648;2022-09-20T13:13:31;2.45;;;0.70;;
19004;SDS011;9635;52.078;8.648;2022-09-20T13:18:42;4.95;;;0.70;;
19004;SDS011;9635;52.078;8.648;2022-09-20T13:23:47;5.25;;;0.70;;
19004;SDS011;9635;52.078;8.648;2022-09-20T13:28:53;2.08;;;0.50;;
19004;SDS011;9635;52.078;8.648;2022-09-20T13:34:16;2.75;;;0.50;;
19004;SDS011;9635;52.078;8.648;2022-09-20T13:39:26;4.97;;;1.25;;
19004;SDS011;9635;52.078;8.648;2022-09-20T13:44:32;1.42;;;0.47;;
19004;SDS011;9635;52.078;8.648;2022-09-20T13:49:41;6.68;;;1.10;;
19004;SDS011;9635;52.078;8.648;2022-09-20T13:54:45;4.50;;;1.48;;
19004;SDS011;9635;52.078;8.648;2022-09-20T13:59:48;3.88;;;0.93;;
19004;SDS011;9635;52.078;8.648;2022-09-20T14:04:55;4.22;;;0.70;;
19004;SDS011;9635;52.078;8.648;2022-09-20T14:10:00;2.72;;;0.47;;
19004;SDS011;9635;52.078;8.648;2022-09-20T14:15:03;5.43;;;0.50;;
19004;SDS011;9635;52.078;8.648;2022-09-20T14:20:12;2.08;;;0.68;;
19004;SDS011;9635;52.078;8.648;2022-09-20T14:25:19;2.45;;;0.60;;
19004;SDS011;9635;52.078;8.648;2022-09-20T14:30:27;1.33;;;0.38;;
19004;SDS011;9635;52.078;8.648;2022-09-20T14:35:32;5.30;;;0.68;;
19004;SDS011;9635;52.078;8.648;2022-09-20T14:40:39;3.80;;;0.77;;
19004;SDS011;9635;52.078;8.648;2022-09-20T14:45:49;1.77;;;0.20;;
19004;SDS011;9635;52.078;8.648;2022-09-20T14:51:08;1.88;;;0.38;;
19004;SDS011;9635;52.078;8.648;2022-09-20T14:56:31;1.90;;;0.30;;
19004;SDS011;9635;52.078;8.648;2022-09-20T15:01:36;3.67;;;0.65;;
19004;SDS011;9635;52.078;8.648;2022-09-20T15:12:10;1.42;;;0.57;;
19004;SDS011;9635;52.078;8.648;2022-09-20T15:17:15;2.78;;;0.50;;
19004;SDS011;9635;52.078;8.648;2022-09-20T15:22:19;4.20;;;0.57;;
19004;SDS011;9635;52.078;8.648;2022-09-20T15:27:23;1.90;;;1.00;;
19004;SDS011;9635;52.078;8.648;2022-09-20T15:32:28;2.97;;;0.80;;
19004;SDS011;9635;52.078;8.648;2022-09-20T15:37:31;12.88;;;5.28;;
19004;SDS011;9635;52.078;8.648;2022-09-20T15:42:36;2.33;;;1.35;;
19004;SDS011;9635;52.078;8.648;2022-09-20T15:47:42;2.90;;;0.98;;
19004;SDS011;9635;52.078;8.648;2022-09-20T15:52:44;3.17;;;1.00;;
19004;SDS011;9635;52.078;8.648;2022-09-20T15:57:53;3.90;;;1.08;;
19004;SDS011;9635;52.078;8.648;2022-09-20T16:02:55;5.80;;;1.13;;
19004;SDS011;9635;52.078;8.648;2022-09-20T16:07:59;2.97;;;0.77;;
19004;SDS011;9635;52.078;8.648;2022-09-20T16:13:04;1.77;;;0.40;;
19004;SDS011;9635;52.078;8.648;2022-09-20T16:18:07;2.53;;;0.50;;
19004;SDS011;9635;52.078;8.648;2022-09-20T16:23:27;8.77;;;0.65;;
19004;SDS011;9635;52.078;8.648;2022-09-20T16:28:32;1.88;;;0.47;;
19004;SDS011;9635;52.078;8.648;2022-09-20T16:33:35;2.58;;;0.55;;
19004;SDS011;9635;52.078;8.648;2022-09-20T16:38:38;2.47;;;0.88;;
19004;SDS011;9635;52.078;8.648;2022-09-20T16:43:46;3.15;;;0.60;;
19004;SDS011;9635;52.078;8.648;2022-09-20T16:48:52;2.20;;;0.95;;
19004;SDS011;9635;52.078;8.648;2022-09-20T16:53:57;2.00;;;0.70;;
19004;SDS011;9635;52.078;8.648;2022-09-20T16:59:03;1.60;;;0.60;;
19004;SDS011;9635;52.078;8.648;2022-09-20T17:04:07;3.00;;;0.63;;
19004;SDS011;9635;52.078;8.648;2022-09-20T17:09:12;3.40;;;0.70;;
19004;SDS011;9635;52.078;8.648;2022-09-20T17:14:18;2.83;;;0.98;;
19004;SDS011;9635;52.078;8.648;2022-09-20T17:19:22;2.83;;;0.70;;
19004;SDS011;9635;52.078;8.648;2022-09-20T17:24:26;3.55;;;0.70;;
19004;SDS011;9635;52.078;8.648;2022-09-20T17:29:31;4.07;;;0.82;;
19004;SDS011;9635;52.078;8.648;2022-09-20T17:34:34;2.15;;;0.75;;
19004;SDS011;9635;52.078;8.648;2022-09-20T17:39:37;5.72;;;1.23;;
19004;SDS011;9635;52.078;8.648;2022-09-20T17:44:42;1.80;;;0.82;;
19004;SDS011;9635;52.078;8.648;2022-09-20T17:49:45;5.88;;;2.28;;
19004;SDS011;9635;52.078;8.648;2022-09-20T17:59:52;3.95;;;1.85;;
19004;SDS011;9635;52.078;8.648;2022-09-20T18:04:55;3.85;;;0.93;;
19004;SDS011;9635;52.078;8.648;2022-09-20T18:09:57;2.20;;;1.02;;
19004;SDS011;9635;52.078;8.648;2022-09-20T18:15:02;6.95;;;1.48;;
19004;SDS011;9635;52.078;8.648;2022-09-20T18:20:06;3.65;;;1.83;;
19004;SDS011;9635;52.078;8.648;2022-09-20T18:25:10;4.38;;;1.35;;
19004;SDS011;9635;52.078;8.648;2022-09-20T18:30:15;5.15;;;1.25;;
19004;SDS011;9635;52.078;8.648;2022-09-20T18:35:18;6.07;;;1.52;;
19004;SDS011;9635;52.078;8.648;2022-09-20T18:40:21;7.18;;;1.67;;
19004;SDS011;9635;52.078;8.648;2022-09-20T18:50:28;5.88;;;1.73;;
19004;SDS011;9635;52.078;8.648;2022-09-20T19:00:36;7.20;;;1.95;;
19004;SDS011;9635;52.078;8.648;2022-09-20T19:05:39;7.53;;;1.95;;
19004;SDS011;9635;52.078;8.648;2022-09-20T19:10:45;3.45;;;1.65;;
19004;SDS011;9635;52.078;8.648;2022-09-20T19:15:59;4.22;;;1.70;;
19004;SDS011;9635;52.078;8.648;2022-09-20T19:21:19;5.70;;;1.70;;
19004;SDS011;9635;52.078;8.648;2022-09-20T19:26:27;8.82;;;2.35;;
19004;SDS011;9635;52.078;8.648;2022-09-20T19:31:33;6.88;;;1.88;;
19004;SDS011;9635;52.078;8.648;2022-09-20T19:36:37;2.38;;;1.70;;
19004;SDS011;9635;52.078;8.648;2022-09-20T19:41:53;10.13;;;2.20;;
19004;SDS011;9635;52.078;8.648;2022-09-20T19:47:12;4.05;;;2.22;;
19004;SDS011;9635;52.078;8.648;2022-09-20T19:52:22;5.57;;;2.05;;
19004;SDS011;9635;52.078;8.648;2022-09-20T19:57:27;3.58;;;2.08;;
19004;SDS011;9635;52.078;8.648;2022-09-20T20:02:37;3.50;;;1.90;;
19004;SDS011;9635;52.078;8.648;2022-09-20T20:07:41;6.15;;;1.90;;
19004;SDS011;9635;52.078;8.648;2022-09-20T20:12:51;4.22;;;2.20;;
19004;SDS011;9635;52.078;8.648;2022-09-20T20:18:03;5.00;;;1.90;;
19004;SDS011;9635;52.078;8.648;2022-09-20T20:23:31;5.28;;;2.28;;
19004;SDS011;9635;52.078;8.648;2022-09-20T20:28:44;6.00;;;3.20;;
19004;SDS011;9635;52.078;8.648;2022-09-20T20:33:49;5.22;;;3.17;;
19004;SDS011;9635;52.078;8.648;2022-09-20T20:38:52;9.02;;;3.72;;
19004;SDS011;9635;52.078;8.648;2022-09-20T20:43:55;8.70;;;3.70;;
19004;SDS011;9635;52.078;8.648;2022-09-20T20:48:59;9.93;;;4.15;;
19004;SDS011;9635;52.078;8.648;2022-09-20T20:54:03;6.80;;;4.43;;
19004;SDS011;9635;52.078;8.648;2022-09-20T20:59:06;10.02;;;4.82;;
19004;SDS011;9635;52.078;8.648;2022-09-20T21:04:10;6.38;;;3.90;;
19004;SDS011;9635;52.078;8.648;2022-09-20T21:09:13;9.55;;;3.88;;
19004;SDS011;9635;52.078;8.648;2022-09-20T21:14:16;7.20;;;3.35;;
19004;SDS011;9635;52.078;8.648;2022-09-20T21:24:24;5.35;;;2.90;;
19004;SDS011;9635;52.078;8.648;2022-09-20T21:34:30;5.78;;;3.08;;
19004;SDS011;9635;52.078;8.648;2022-09-20T21:39:34;6.80;;;4.10;;
19004;SDS011;9635;52.078;8.648;2022-09-20T21:49:43;6.88;;;4.97;;
19004;SDS011;9635;52.078;8.648;2022-09-20T21:54:46;9.15;;;5.50;;
19004;SDS011;9635;52.078;8.648;2022-09-20T21:59:49;5.43;;;4.50;;
19004;SDS011;9635;52.078;8.648;2022-09-20T22:09:56;6.00;;;2.53;;
19004;SDS011;9635;52.078;8.648;2022-09-20T22:20:03;4.78;;;3.30;;
19004;SDS011;9635;52.078;8.648;2022-09-20T22:25:07;3.92;;;2.05;;
19004;SDS011;9635;52.078;8.648;2022-09-20T22:30:11;4.38;;;2.95;;
19004;SDS011;9635;52.078;8.648;2022-09-20T22:35:15;8.13;;;3.28;;
19004;SDS011;9635;52.078;8.648;2022-09-20T22:40:18;6.65;;;3.83;;
19004;SDS011;9635;52.078;8.648;2022-09-20T22:45:21;5.68;;;3.25;;
19004;SDS011;9635;52.078;8.648;2022-09-20T22:55:28;5.97;;;3.30;;
19004;SDS011;9635;52.078;8.648;2022-09-20T23:00:32;4.75;;;3.33;;
19004;SDS011;9635;52.078;8.648;2022-09-20T23:05:38;7.75;;;3.95;;
19004;SDS011;9635;52.078;8.648;2022-09-20T23:10:41;6.20;;;3.95;;
19004;SDS011;9635;52.078;8.648;2022-09-20T23:20:55;10.30;;;3.97;;
19004;SDS011;9635;52.078;8.648;2022-09-20T23:26:03;5.18;;;3.97;;
19004;SDS011;9635;52.078;8.648;2022-09-20T23:31:09;6.90;;;4.45;;
19004;SDS011;9635;52.078;8.648;2022-09-20T23:36:15;10.15;;;4.90;;
19004;SDS011;9635;52.078;8.648;2022-09-20T23:41:20;11.77;;;5.38;;
19004;SDS011;9635;52.078;8.648;2022-09-20T23:46:24;5.43;;;4.43;;
19004;SDS011;9635;52.078;8.648;2022-09-20T23:51:29;6.07;;;4.32;;
19004;SDS011;9635;52.078;8.648;2022-09-20T23:56:32;6.93;;;4.63;;
